createdAt,value
2022-10-12T00:02:06.792Z,101103.59
2022-10-12T00:04:35.545Z,101106.61
2022-10-12T00:07:18.618Z,101105.77
2022-10-12T00:10:00.920Z,101105.45
2022-10-12T00:12:29.638Z,101106.35
2022-10-12T00:15:13.523Z,101106.52
2022-10-12T00:17:56.051Z,101107.11
2022-10-12T00:20:24.988Z,101114.24
2022-10-12T00:22:54.002Z,101111.67
2022-10-12T00:25:38.661Z,101115.70
2022-10-12T00:28:21.172Z,101117.98
2022-10-12T00:30:50.609Z,101119.73
2022-10-12T00:33:19.618Z,101119.89
2022-10-12T00:36:12.649Z,101119.03
2022-10-12T00:38:56.749Z,101122.53
2022-10-12T00:41:29.697Z,101123.77
2022-10-12T00:44:44.456Z,101122.42
2022-10-12T00:47:34.805Z,101122.60
2022-10-12T00:50:11.349Z,101121.70
2022-10-12T00:53:14.588Z,101121.35
2022-10-12T00:56:01.624Z,101119.58
2022-10-12T00:58:35.097Z,101122.52
2022-10-12T01:01:05.457Z,101123.73
2022-10-12T01:03:36.546Z,101126.83
2022-10-12T01:06:20.178Z,101128.40
2022-10-12T01:09:04.168Z,101129.50
2022-10-12T01:11:46.500Z,101128.52
2022-10-12T01:14:28.966Z,101134.27
2022-10-12T01:17:20.267Z,101135.69
2022-10-12T01:20:27.708Z,101133.21
2022-10-12T01:23:16.206Z,101135.48
2022-10-12T01:26:23.087Z,101133.40
2022-10-12T01:28:55.166Z,101135.17
2022-10-12T01:31:39.371Z,101131.71
2022-10-12T01:34:48.065Z,101133.64
2022-10-12T01:38:08.545Z,101133.10
2022-10-12T01:41:09.821Z,101131.52
2022-10-12T01:43:53.151Z,101127.63
2022-10-12T01:46:21.628Z,101135.58
2022-10-12T01:49:04.165Z,101132.77
2022-10-12T01:52:04.440Z,101126.73
2022-10-12T01:54:52.812Z,101125.21
2022-10-12T01:58:12.811Z,101129.98
2022-10-12T02:01:24.520Z,101129.02
2022-10-12T02:04:15.284Z,101129.25
2022-10-12T02:07:05.996Z,101127.57
2022-10-12T02:09:37.890Z,101126.08
2022-10-12T02:12:29.490Z,101123.56
2022-10-12T02:15:03.419Z,101123.46
2022-10-12T02:17:49.905Z,101124.77
2022-10-12T02:20:23.432Z,101122.57
2022-10-12T02:22:53.747Z,101125.24
2022-10-12T02:25:26.907Z,101122.19
2022-10-12T02:28:02.870Z,101126.40
2022-10-12T02:30:42.874Z,101126.95
2022-10-12T02:33:35.325Z,101129.22
2022-10-12T02:36:12.004Z,101128.90
2022-10-12T02:39:05.811Z,101134.80
2022-10-12T02:41:41.352Z,101138.64
2022-10-12T02:44:14.233Z,101136.92
2022-10-12T02:46:45.806Z,101136.94
2022-10-12T02:49:30.276Z,101137.52
2022-10-12T02:52:12.593Z,101140.48
2022-10-12T02:54:42.170Z,101143.45
2022-10-12T02:57:24.665Z,101146.25
2022-10-12T03:00:08.440Z,101145.92
2022-10-12T03:02:37.248Z,101146.29
2022-10-12T03:05:19.565Z,101143.35
2022-10-12T03:07:48.336Z,101143.03
2022-10-12T03:10:31.151Z,101140.97
2022-10-12T03:13:13.658Z,101138.23
2022-10-12T03:15:42.516Z,101141.73
2022-10-12T03:18:11.392Z,101143.83
2022-10-12T03:20:53.814Z,101143.16
2022-10-12T03:23:36.276Z,101143.02
2022-10-12T03:26:18.890Z,101146.70
2022-10-12T03:29:01.625Z,101152.46
2022-10-12T03:31:30.717Z,101154.39
2022-10-12T03:34:13.143Z,101159.99
2022-10-12T03:36:56.013Z,101158.31
2022-10-12T03:39:25.117Z,101155.38
2022-10-12T03:41:54.162Z,101153.98
2022-10-12T03:44:23.054Z,101155.21
2022-10-12T03:46:52.087Z,101152.44
2022-10-12T03:49:21.821Z,101152.96
2022-10-12T03:52:04.706Z,101153.83
2022-10-12T03:54:33.770Z,101159.23
2022-10-12T03:57:02.476Z,101158.95
2022-10-12T03:59:45.436Z,101160.55
2022-10-12T04:02:27.926Z,101160.23
2022-10-12T04:04:56.647Z,101161.11
2022-10-12T04:07:25.910Z,101160.23
2022-10-12T04:10:08.563Z,101161.08
2022-10-12T04:12:50.987Z,101162.98
2022-10-12T04:17:49.628Z,101164.05
2022-10-12T04:20:18.728Z,101164.59
2022-10-12T04:23:01.212Z,101165.66
2022-10-12T04:25:43.673Z,101166.41
2022-10-12T04:28:26.159Z,101171.12
2022-10-12T04:30:55.131Z,101173.39
2022-10-12T04:33:24.176Z,101174.27
2022-10-12T04:35:53.254Z,101178.08
2022-10-12T04:38:35.713Z,101180.18
2022-10-12T04:41:18.073Z,101181.77
2022-10-12T04:43:46.964Z,101183.55
2022-10-12T04:46:29.356Z,101181.15
2022-10-12T04:49:12.329Z,101183.08
2022-10-12T04:51:41.064Z,101188.46
2022-10-12T04:54:23.783Z,101184.48
2022-10-12T04:57:06.309Z,101187.95
2022-10-12T04:59:35.034Z,101190.90
2022-10-12T05:02:03.925Z,101192.08
2022-10-12T05:07:01.936Z,101192.42
2022-10-12T05:09:44.337Z,101192.28
2022-10-12T05:12:13.312Z,101191.08
2022-10-12T05:14:55.616Z,101185.71
2022-10-12T05:17:38.795Z,101190.91
2022-10-12T05:20:21.904Z,101191.06
2022-10-12T05:22:51.433Z,101195.73
2022-10-12T05:25:20.419Z,101194.35
2022-10-12T05:28:03.031Z,101192.98
2022-10-12T05:30:45.313Z,101195.93
2022-10-12T05:33:14.097Z,101197.12
2022-10-12T05:35:47.477Z,101200.74
2022-10-12T05:38:31.269Z,101198.64
2022-10-12T05:41:01.154Z,101200.83
2022-10-12T05:43:43.536Z,101203.02
2022-10-12T05:46:25.958Z,101210.91
2022-10-12T05:48:54.744Z,101212.26
2022-10-12T05:51:28.559Z,101218.09
2022-10-12T05:54:11.049Z,101224.59
2022-10-12T05:56:39.925Z,101224.06
2022-10-12T05:59:09.073Z,101225.23
2022-10-12T06:01:51.445Z,101227.27
2022-10-12T06:04:20.369Z,101223.94
2022-10-12T06:07:02.764Z,101220.23
2022-10-12T06:09:31.684Z,101223.48
2022-10-12T06:12:01.035Z,101223.25
2022-10-12T06:14:29.787Z,101223.69
2022-10-12T06:17:12.222Z,101223.95
2022-10-12T06:19:41.142Z,101227.33
2022-10-12T06:22:23.733Z,101226.73
2022-10-12T06:24:52.482Z,101231.70
2022-10-12T06:27:35.153Z,101231.23
2022-10-12T06:30:04.900Z,101230.45
2022-10-12T06:32:47.367Z,101226.85
2022-10-12T06:35:29.751Z,101234.02
2022-10-12T06:38:12.153Z,101236.15
2022-10-12T06:40:54.512Z,101235.67
2022-10-12T06:43:36.873Z,101234.47
2022-10-12T06:46:05.987Z,101233.79
2022-10-12T06:48:34.753Z,101233.59
2022-10-12T06:51:17.301Z,101236.52
2022-10-12T06:53:59.709Z,101240.36
2022-10-12T06:56:28.707Z,101241.21
2022-10-12T06:59:14.315Z,101242.21
2022-10-12T07:01:43.288Z,101242.50
2022-10-12T07:04:25.723Z,101245.41
2022-10-12T07:06:54.800Z,101245.48
2022-10-12T07:09:37.144Z,101244.82
2022-10-12T07:12:19.483Z,101247.13
2022-10-12T07:14:48.222Z,101251.21
2022-10-12T07:17:17.326Z,101254.59
2022-10-12T07:19:46.087Z,101253.16
2022-10-12T07:22:14.686Z,101258.84
2022-10-12T07:24:43.988Z,101262.45
2022-10-12T07:27:26.588Z,101265.77
2022-10-12T07:29:55.708Z,101267.91
2022-10-12T07:32:24.301Z,101265.50
2022-10-12T07:35:06.965Z,101262.49
2022-10-12T07:37:50.005Z,101266.41
2022-10-12T07:40:32.844Z,101266.64
2022-10-12T07:43:16.867Z,101263.62
2022-10-12T07:45:59.792Z,101264.84
2022-10-12T07:48:29.115Z,101263.53
2022-10-12T07:51:04.538Z,101261.80
2022-10-12T07:53:39.951Z,101261.80
2022-10-12T07:56:23.037Z,101255.72
2022-10-12T07:58:54.763Z,101255.11
2022-10-12T08:01:25.605Z,101257.38
2022-10-12T08:04:08.300Z,101258.05
2022-10-12T08:06:37.326Z,101255.73
2022-10-12T08:09:06.383Z,101249.66
2022-10-12T08:11:48.730Z,101253.45
2022-10-12T08:14:17.531Z,101254.18
2022-10-12T08:17:00.083Z,101257.16
2022-10-12T08:19:32.985Z,101256.38
2022-10-12T08:22:04.382Z,101259.45
2022-10-12T08:24:35.392Z,101255.23
2022-10-12T08:27:04.669Z,101254.06
2022-10-12T08:29:33.496Z,101247.02
2022-10-12T08:32:02.395Z,101248.79
2022-10-12T08:34:31.514Z,101247.66
2022-10-12T08:37:01.158Z,101250.16
2022-10-12T08:39:43.722Z,101250.86
2022-10-12T08:42:37.255Z,101246.29
2022-10-12T08:45:44.590Z,101246.70
2022-10-12T08:48:24.472Z,101245.90
2022-10-12T08:54:06.142Z,101247.95
2022-10-12T08:56:49.251Z,101249.02
2022-10-12T08:59:19.253Z,101248.28
2022-10-12T09:02:40.474Z,101240.83
2022-10-12T09:05:32.485Z,101242.86
2022-10-12T09:08:53.024Z,101240.86
2022-10-12T09:11:43.751Z,101243.43
2022-10-12T09:14:33.624Z,101240.35
2022-10-12T09:17:12.324Z,101235.48
2022-10-12T09:19:43.459Z,101235.33
2022-10-12T09:22:29.269Z,101238.33
2022-10-12T09:24:59.719Z,101239.05
2022-10-12T09:27:32.138Z,101244.39
2022-10-12T09:30:06.146Z,101244.84
2022-10-12T09:32:56.213Z,101242.02
2022-10-12T09:35:47.705Z,101231.77
2022-10-12T09:38:30.059Z,101231.30
2022-10-12T09:41:30.702Z,101231.08
2022-10-12T09:44:03.821Z,101235.73
2022-10-12T09:46:42.187Z,101236.41
2022-10-12T09:49:11.013Z,101236.38
2022-10-12T09:51:40.100Z,101235.31
2022-10-12T09:54:19.663Z,101240.96
2022-10-12T09:57:03.545Z,101235.05
2022-10-12T09:59:46.427Z,101233.23
2022-10-12T10:02:24.266Z,101228.55
2022-10-12T10:04:54.673Z,101235.93
2022-10-12T10:07:37.674Z,101232.73
2022-10-12T10:10:16.065Z,101230.31
2022-10-12T10:13:01.729Z,101235.98
2022-10-12T10:15:39.591Z,101230.01
2022-10-12T10:18:25.873Z,101229.88
2022-10-12T10:21:11.827Z,101230.98
2022-10-12T10:23:51.758Z,101232.65
2022-10-12T10:26:24.149Z,101239.66
2022-10-12T10:29:15.886Z,101236.11
2022-10-12T10:31:46.686Z,101237.61
2022-10-12T10:34:18.837Z,101238.55
2022-10-12T10:37:01.287Z,101230.27
2022-10-12T10:39:46.977Z,101233.22
2022-10-12T10:42:32.936Z,101226.45
2022-10-12T10:45:08.916Z,101233.70
2022-10-12T10:47:47.209Z,101226.77
2022-10-12T10:50:39.997Z,101222.42
2022-10-12T10:53:26.646Z,101227.61
2022-10-12T10:56:25.287Z,101217.66
2022-10-12T10:58:56.754Z,101215.37
2022-10-12T11:01:44.605Z,101214.73
2022-10-12T11:04:35.712Z,101223.30
2022-10-12T11:07:17.193Z,101208.48
2022-10-12T11:09:50.688Z,101215.13
2022-10-12T11:12:36.245Z,101209.46
2022-10-12T11:15:16.117Z,101212.61
2022-10-12T11:17:50.493Z,101213.14
2022-10-12T11:21:13.565Z,101214.15
2022-10-12T11:24:06.487Z,101209.93
2022-10-12T11:26:45.427Z,101213.33
2022-10-12T11:29:28.630Z,101202.70
2022-10-12T11:32:08.398Z,101201.69
2022-10-12T11:34:55.738Z,101205.63
2022-10-12T11:37:36.876Z,101203.23
2022-10-12T11:40:23.566Z,101199.35
2022-10-12T11:42:58.218Z,101197.96
2022-10-12T11:45:32.511Z,101208.45
2022-10-12T11:48:36.178Z,101202.70
2022-10-12T11:51:06.236Z,101208.88
2022-10-12T11:53:53.640Z,101202.41
2022-10-12T11:56:43.815Z,101203.98
2022-10-12T11:59:31.309Z,101205.77
2022-10-12T12:02:38.302Z,101201.07
2022-10-12T12:05:17.131Z,101203.73
2022-10-12T12:07:55.572Z,101194.48
2022-10-12T12:10:38.693Z,101197.36
2022-10-12T12:13:24.528Z,101197.66
2022-10-12T12:15:53.278Z,101200.60
2022-10-12T12:18:24.940Z,101201.65
2022-10-12T12:21:10.403Z,101201.94
2022-10-12T12:23:56.552Z,101201.89
2022-10-12T12:26:48.195Z,101196.82
2022-10-12T12:29:31.382Z,101195.86
2022-10-12T12:32:13.817Z,101197.89
2022-10-12T12:35:00.047Z,101195.42
2022-10-12T12:37:43.170Z,101193.95
2022-10-12T12:40:24.604Z,101193.60
2022-10-12T12:43:29.080Z,101193.46
2022-10-12T12:46:13.972Z,101195.43
2022-10-12T12:48:58.069Z,101199.16
2022-10-12T12:51:43.488Z,101196.58
2022-10-12T12:54:21.344Z,101197.32
2022-10-12T12:57:08.857Z,101191.55
2022-10-12T13:00:11.802Z,101191.84
2022-10-12T13:03:01.715Z,101189.42
2022-10-12T13:05:49.892Z,101190.27
2022-10-12T13:08:50.850Z,101193.23
2022-10-12T13:11:37.989Z,101192.59
2022-10-12T13:14:44.666Z,101194.14
2022-10-12T13:17:33.005Z,101188.58
2022-10-12T13:20:19.145Z,101192.38
2022-10-12T13:22:52.589Z,101192.91
2022-10-12T13:25:46.347Z,101191.52
2022-10-12T13:28:33.008Z,101192.60
2022-10-12T13:31:14.050Z,101195.20
2022-10-12T13:34:22.041Z,101192.20
2022-10-12T13:37:03.339Z,101191.83
2022-10-12T13:39:40.235Z,101193.04
2022-10-12T13:42:12.409Z,101195.16
2022-10-12T13:44:42.526Z,101195.27
2022-10-12T13:47:33.095Z,101192.66
2022-10-12T13:50:02.512Z,101194.19
2022-10-12T13:52:34.512Z,101200.33
2022-10-12T13:55:15.849Z,101195.16
2022-10-12T13:57:58.210Z,101195.94
2022-10-12T14:00:47.911Z,101197.62
2022-10-12T14:03:16.743Z,101195.69
2022-10-12T14:05:46.333Z,101198.08
2022-10-12T14:08:20.349Z,101194.48
2022-10-12T14:10:49.918Z,101191.95
2022-10-12T14:13:40.398Z,101193.02
2022-10-12T14:16:09.743Z,101189.35
2022-10-12T14:18:52.542Z,101185.63
2022-10-12T14:21:31.156Z,101184.32
2022-10-12T14:24:10.672Z,101182.42
2022-10-12T14:26:45.258Z,101180.73
2022-10-12T14:29:36.199Z,101177.87
2022-10-12T14:32:08.602Z,101177.69
2022-10-12T14:35:19.428Z,101180.59
2022-10-12T14:38:40.062Z,101181.33
2022-10-12T14:41:43.547Z,101176.77
2022-10-12T14:44:16.636Z,101175.05
2022-10-12T14:47:16.775Z,101174.15
2022-10-12T14:49:48.035Z,101175.05
2022-10-12T14:52:44.256Z,101173.91
2022-10-12T14:55:30.019Z,101176.33
2022-10-12T14:57:59.986Z,101177.00
2022-10-12T15:00:43.009Z,101176.73
2022-10-12T15:03:12.248Z,101175.60
2022-10-12T15:05:41.029Z,101175.59
2022-10-12T15:08:09.854Z,101175.07
2022-10-12T15:10:39.223Z,101171.89
2022-10-12T15:13:12.206Z,101175.20
2022-10-12T15:15:45.679Z,101171.94
2022-10-12T15:18:28.370Z,101171.33
2022-10-12T15:21:10.809Z,101171.54
2022-10-12T15:23:40.124Z,101173.20
2022-10-12T15:26:17.594Z,101172.84
2022-10-12T15:29:00.089Z,101174.55
2022-10-12T15:31:29.160Z,101169.15
2022-10-12T15:34:15.587Z,101169.67
2022-10-12T15:36:44.232Z,101166.23
2022-10-12T15:39:13.134Z,101163.35
2022-10-12T15:41:42.173Z,101165.70
2022-10-12T15:44:16.147Z,101168.50
2022-10-12T15:47:00.911Z,101167.95
2022-10-12T15:49:43.307Z,101163.71
2022-10-12T15:52:25.594Z,101166.41
2022-10-12T15:54:54.136Z,101165.34
2022-10-12T15:57:37.076Z,101169.48
2022-10-12T16:00:22.309Z,101171.15
2022-10-12T16:02:51.082Z,101173.06
2022-10-12T16:05:24.181Z,101174.55
2022-10-12T16:07:53.259Z,101173.36
2022-10-12T16:10:39.955Z,101174.02
2022-10-12T16:13:22.469Z,101171.91
2022-10-12T16:15:51.867Z,101172.07
2022-10-12T16:18:20.848Z,101170.21
2022-10-12T16:21:03.595Z,101167.26
2022-10-12T16:23:34.631Z,101166.52
2022-10-12T16:26:06.630Z,101167.26
2022-10-12T16:28:36.452Z,101167.98
2022-10-12T16:31:15.885Z,101169.10
2022-10-12T16:33:58.445Z,101168.35
2022-10-12T16:36:27.109Z,101164.99
2022-10-12T16:39:09.441Z,101170.42
2022-10-12T16:41:52.550Z,101170.09
2022-10-12T16:44:22.871Z,101171.27
2022-10-12T16:47:06.011Z,101163.75
2022-10-12T16:49:34.747Z,101167.79
2022-10-12T16:52:04.406Z,101169.22
2022-10-12T16:54:47.616Z,101168.19
2022-10-12T16:57:29.901Z,101172.66
2022-10-12T16:59:59.286Z,101168.52
2022-10-12T17:02:28.423Z,101169.80
2022-10-12T17:04:57.033Z,101171.70
2022-10-12T17:07:27.112Z,101175.33
2022-10-12T17:10:09.884Z,101178.10
2022-10-12T17:12:38.542Z,101179.63
2022-10-12T17:15:08.525Z,101180.04
2022-10-12T17:17:37.210Z,101176.33
2022-10-12T17:20:07.156Z,101178.91
2022-10-12T17:22:35.854Z,101177.63
2022-10-12T17:25:05.198Z,101177.52
2022-10-12T17:27:34.618Z,101175.36
2022-10-12T17:30:03.815Z,101173.02
2022-10-12T17:32:46.783Z,101172.18
2022-10-12T17:35:15.623Z,101173.90
2022-10-12T17:37:44.311Z,101173.89
2022-10-12T17:40:13.527Z,101169.73
2022-10-12T17:42:56.241Z,101172.23
2022-10-12T17:45:25.006Z,101174.35
2022-10-12T17:48:08.231Z,101173.48
2022-10-12T17:50:50.736Z,101173.00
2022-10-12T17:53:19.656Z,101171.05
2022-10-12T17:56:03.549Z,101167.65
2022-10-12T17:58:45.831Z,101165.30
2022-10-12T18:01:16.614Z,101167.52
2022-10-12T18:04:04.971Z,101165.72
2022-10-12T18:06:34.778Z,101167.75
2022-10-12T18:09:05.670Z,101165.73
2022-10-12T18:11:35.014Z,101167.10
2022-10-12T18:14:17.427Z,101169.04
2022-10-12T18:16:59.793Z,101169.41
2022-10-12T18:19:28.863Z,101172.21
2022-10-12T18:22:11.560Z,101175.04
2022-10-12T18:24:41.226Z,101176.50
2022-10-12T18:27:23.581Z,101177.56
2022-10-12T18:29:52.496Z,101172.87
2022-10-12T18:32:21.407Z,101179.21
2022-10-12T18:35:03.923Z,101180.50
2022-10-12T18:37:33.105Z,101178.15
2022-10-12T18:40:02.097Z,101180.18
2022-10-12T18:42:44.880Z,101180.60
2022-10-12T18:45:14.378Z,101183.63
2022-10-12T18:47:43.161Z,101182.90
2022-10-12T18:50:12.570Z,101185.46
2022-10-12T18:52:43.136Z,101185.58
2022-10-12T18:55:12.074Z,101189.02
2022-10-12T18:57:54.687Z,101186.73
2022-10-12T19:00:23.792Z,101189.88
2022-10-12T19:02:52.613Z,101189.21
2022-10-12T19:05:21.290Z,101188.48
2022-10-12T19:08:03.668Z,101188.10
2022-10-12T19:10:33.820Z,101188.41
2022-10-12T19:13:02.917Z,101188.48
2022-10-12T19:15:32.449Z,101194.60
2022-10-12T19:18:02.801Z,101194.20
2022-10-12T19:20:33.888Z,101194.52
2022-10-12T19:23:04.368Z,101194.30
2022-10-12T19:25:39.303Z,101194.31
2022-10-12T19:28:08.920Z,101195.23
2022-10-12T19:30:40.569Z,101198.18
2022-10-12T19:33:24.302Z,101197.27
2022-10-12T19:35:55.266Z,101194.77
2022-10-12T19:38:24.995Z,101193.39
2022-10-12T19:41:08.356Z,101194.17
2022-10-12T19:43:38.154Z,101194.12
2022-10-12T19:46:11.759Z,101189.92
2022-10-12T19:48:45.449Z,101188.48
2022-10-12T19:51:14.539Z,101192.08
2022-10-12T19:53:45.740Z,101192.89
2022-10-12T19:56:30.407Z,101196.13
2022-10-12T19:59:00.632Z,101199.37
2022-10-12T20:01:36.220Z,101199.02
2022-10-12T20:04:09.896Z,101197.09
2022-10-12T20:06:39.513Z,101192.73
2022-10-12T20:09:09.536Z,101194.80
2022-10-12T20:11:38.908Z,101192.65
2022-10-12T20:14:21.119Z,101192.92
2022-10-12T20:16:51.006Z,101195.79
2022-10-12T20:19:20.163Z,101190.80
2022-10-12T20:21:49.350Z,101190.56
2022-10-12T20:24:18.110Z,101189.13
2022-10-12T20:26:47.343Z,101188.73
2022-10-12T20:29:16.267Z,101188.89
2022-10-12T20:31:58.648Z,101195.82
2022-10-12T20:34:27.610Z,101199.61
2022-10-12T20:37:11.263Z,101197.49
2022-10-12T20:39:53.583Z,101197.12
2022-10-12T20:42:35.893Z,101198.60
2022-10-12T20:45:05.488Z,101197.33
2022-10-12T20:47:34.367Z,101197.23
2022-10-12T20:50:03.349Z,101194.56
2022-10-12T20:52:32.020Z,101192.39
2022-10-12T20:55:14.962Z,101189.07
2022-10-12T20:57:57.361Z,101189.73
2022-10-12T21:00:39.832Z,101186.67
2022-10-12T21:03:22.219Z,101185.77
2022-10-12T21:05:51.053Z,101185.20
2022-10-12T21:08:20.072Z,101188.04
2022-10-12T21:11:03.664Z,101185.81
2022-10-12T21:13:34.587Z,101184.10
2022-10-12T21:16:03.475Z,101184.83
2022-10-12T21:18:37.650Z,101186.10
2022-10-12T21:21:13.999Z,101190.70
2022-10-12T21:23:45.233Z,101190.63
2022-10-12T21:26:18.992Z,101192.14
2022-10-12T21:28:48.121Z,101196.73
2022-10-12T21:31:32.942Z,101195.91
2022-10-12T21:34:15.508Z,101199.96
2022-10-12T21:36:44.721Z,101203.17
2022-10-12T21:39:16.269Z,101200.75
2022-10-12T21:41:45.128Z,101202.11
2022-10-12T21:44:27.462Z,101203.88
2022-10-12T21:46:56.729Z,101203.23
2022-10-12T21:49:25.354Z,101204.67
2022-10-12T21:51:54.277Z,101207.13
2022-10-12T21:54:23.148Z,101205.41
2022-10-12T21:56:51.652Z,101204.56
2022-10-12T21:59:20.208Z,101202.66
2022-10-12T22:01:49.279Z,101204.63
2022-10-12T22:04:31.634Z,101202.98
2022-10-12T22:07:01.327Z,101201.98
2022-10-12T22:09:44.078Z,101199.45
2022-10-12T22:12:26.552Z,101203.14
2022-10-12T22:14:55.371Z,101199.77
2022-10-12T22:17:39.193Z,101200.02
2022-10-12T22:20:21.751Z,101204.66
2022-10-12T22:23:07.852Z,101201.48
2022-10-12T22:25:50.312Z,101205.34
2022-10-12T22:28:19.465Z,101206.73
2022-10-12T22:30:48.432Z,101210.73
2022-10-12T22:33:17.876Z,101211.63
2022-10-12T22:36:01.739Z,101210.83
2022-10-12T22:38:44.545Z,101206.04
2022-10-12T22:41:16.480Z,101204.92
2022-10-12T22:43:50.713Z,101199.30
2022-10-12T22:46:20.893Z,101194.69
2022-10-12T22:48:49.911Z,101198.19
2022-10-12T22:51:35.146Z,101193.17
2022-10-12T22:54:17.679Z,101191.97
2022-10-12T22:56:48.190Z,101192.48
2022-10-12T22:59:30.592Z,101188.92
2022-10-12T23:01:59.686Z,101189.46
2022-10-12T23:04:29.246Z,101190.25
2022-10-12T23:07:12.273Z,101188.27
2022-10-12T23:09:54.702Z,101188.02
2022-10-12T23:12:37.786Z,101190.28
2022-10-12T23:15:20.273Z,101191.84
2022-10-12T23:18:04.986Z,101191.46
2022-10-12T23:20:47.790Z,101195.80
2022-10-12T23:23:16.829Z,101197.02
2022-10-12T23:25:46.349Z,101200.52
2022-10-12T23:28:17.738Z,101201.25
2022-10-12T23:30:46.713Z,101199.80
2022-10-12T23:33:29.570Z,101200.09
2022-10-12T23:36:01.558Z,101199.45
2022-10-12T23:38:32.266Z,101198.94
2022-10-12T23:41:02.013Z,101198.78
2022-10-12T23:43:44.503Z,101196.91
2022-10-12T23:46:14.322Z,101195.04
2022-10-12T23:48:57.487Z,101194.20
2022-10-12T23:51:39.969Z,101196.30
2022-10-12T23:54:09.655Z,101196.99
2022-10-12T23:56:52.654Z,101197.21
2022-10-12T23:59:21.976Z,101197.08
